Joplin Regional Airport
KJLN : now visible

Airfield :











YOU CAN JOIN US ON...

 
LOGIN :

Register | Disclaimer

   EN    FR    IT 

 









Legend :    VFR   Marginal VFR   IFR   Intensive IFR   Very Intensive IFR
Visi :
Ceiling :
>= 8 km
>= 3000ft
5 to 8 km
1000 to 3000 ft
1500m to 5 km
500 to 1000 ft
800 to 1500m
200 to 500 ft
< 800m
< 200 ft
Symbols :   Thunderstorms  Fog  Heavy snow  Heavy precipitations  Wind > 20 kt






- Airport Elevation : 981 ft
- IATA code : JLN


KJLN - Joplin Regional

CURRENT METAR :
  • 130353Z AUTO 18010KT 10SM OVC050 08/M04 A3005 RMK AO2 SLP178 T00831039

EXPIRED METARs :
  • 130253Z 18008KT 10SM OVC050 08/M04 A3006 RMK AO2 SLP180 T00781039 58001
  • 130153Z 20006KT 10SM CLR 06/M06 A3007 RMK AO2 SLP184 T00561056

TAF KJLN
Valid from the 13 at 00:00 until the 14 at 00:00 UTC


122320Z 1300/1324 19008KT P6SM FEW250
FM131000 19006KT P6SM FEW250
FM131600 21008KT P6SM BKN200



MET'MAP, your aeronautical weather chart ! - Copyright ORBIFLY December 2007 - Disclaimer

ORBIFLY MET'MAP TEAM :

Programming & Development : Alexandra Zaïnal
Concept & original design : Baudouin d'Aumeries
Assistance for programming : Marc-Olivier Méhu
Technical & hardware support : Manuel Goepfert

Contact : metmap@orbifly.com




SOURCES & CREDITS :

   NOAA       Earth
Advisory